sensor_id;sensor_type;location;lat;lon;timestamp;P1;durP1;ratioP1;P2;durP2;ratioP2
5867;SDS011;2960;49.142;7.768;2023-07-20T00:02:03;11.30;;;4.40;;
5867;SDS011;2960;49.142;7.768;2023-07-20T00:04:32;11.40;;;4.30;;
5867;SDS011;2960;49.142;7.768;2023-07-20T00:07:04;11.47;;;4.40;;
5867;SDS011;2960;49.142;7.768;2023-07-20T00:09:32;11.20;;;4.30;;
5867;SDS011;2960;49.142;7.768;2023-07-20T00:11:59;11.97;;;4.33;;
5867;SDS011;2960;49.142;7.768;2023-07-20T00:14:26;11.13;;;4.30;;
5867;SDS011;2960;49.142;7.768;2023-07-20T00:16:55;11.30;;;4.43;;
5867;SDS011;2960;49.142;7.768;2023-07-20T00:19:22;12.00;;;4.40;;
5867;SDS011;2960;49.142;7.768;2023-07-20T00:21:50;11.53;;;4.50;;
5867;SDS011;2960;49.142;7.768;2023-07-20T00:24:19;11.60;;;4.67;;
5867;SDS011;2960;49.142;7.768;2023-07-20T00:26:46;12.07;;;4.50;;
5867;SDS011;2960;49.142;7.768;2023-07-20T00:29:14;11.80;;;4.60;;
5867;SDS011;2960;49.142;7.768;2023-07-20T00:31:41;11.90;;;4.50;;
5867;SDS011;2960;49.142;7.768;2023-07-20T00:34:08;11.60;;;4.47;;
5867;SDS011;2960;49.142;7.768;2023-07-20T00:36:35;11.33;;;4.60;;
5867;SDS011;2960;49.142;7.768;2023-07-20T00:39:03;13.30;;;4.40;;
5867;SDS011;2960;49.142;7.768;2023-07-20T00:41:31;11.50;;;4.70;;
5867;SDS011;2960;49.142;7.768;2023-07-20T00:43:58;13.20;;;4.47;;
5867;SDS011;2960;49.142;7.768;2023-07-20T00:46:25;11.50;;;4.80;;
5867;SDS011;2960;49.142;7.768;2023-07-20T00:48:52;11.63;;;4.50;;
5867;SDS011;2960;49.142;7.768;2023-07-20T00:51:20;12.37;;;4.60;;
5867;SDS011;2960;49.142;7.768;2023-07-20T00:53:48;12.63;;;4.97;;
5867;SDS011;2960;49.142;7.768;2023-07-20T00:56:15;11.60;;;4.80;;
5867;SDS011;2960;49.142;7.768;2023-07-20T00:58:44;12.13;;;4.87;;
5867;SDS011;2960;49.142;7.768;2023-07-20T01:01:12;11.90;;;4.60;;
5867;SDS011;2960;49.142;7.768;2023-07-20T01:03:39;12.03;;;4.73;;
5867;SDS011;2960;49.142;7.768;2023-07-20T01:06:10;11.77;;;4.77;;
5867;SDS011;2960;49.142;7.768;2023-07-20T01:08:54;12.33;;;4.97;;
5867;SDS011;2960;49.142;7.768;2023-07-20T01:11:32;11.63;;;4.73;;
5867;SDS011;2960;49.142;7.768;2023-07-20T01:14:06;12.33;;;5.13;;
5867;SDS011;2960;49.142;7.768;2023-07-20T01:16:34;11.53;;;4.87;;
5867;SDS011;2960;49.142;7.768;2023-07-20T01:19:01;11.73;;;4.80;;
5867;SDS011;2960;49.142;7.768;2023-07-20T01:21:31;11.40;;;4.80;;
5867;SDS011;2960;49.142;7.768;2023-07-20T01:24:22;11.50;;;4.60;;
5867;SDS011;2960;49.142;7.768;2023-07-20T01:30:46;12.00;;;5.00;;
5867;SDS011;2960;49.142;7.768;2023-07-20T01:33:23;11.40;;;4.60;;
5867;SDS011;2960;49.142;7.768;2023-07-20T01:35:53;12.40;;;4.80;;
5867;SDS011;2960;49.142;7.768;2023-07-20T01:38:23;11.90;;;4.87;;
5867;SDS011;2960;49.142;7.768;2023-07-20T01:40:51;11.40;;;4.57;;
5867;SDS011;2960;49.142;7.768;2023-07-20T01:43:18;11.50;;;4.70;;
5867;SDS011;2960;49.142;7.768;2023-07-20T01:45:45;11.67;;;4.70;;
5867;SDS011;2960;49.142;7.768;2023-07-20T01:48:12;11.80;;;4.50;;
5867;SDS011;2960;49.142;7.768;2023-07-20T01:50:41;11.70;;;4.60;;
5867;SDS011;2960;49.142;7.768;2023-07-20T01:53:08;11.90;;;4.70;;
5867;SDS011;2960;49.142;7.768;2023-07-20T01:55:35;11.33;;;4.30;;
5867;SDS011;2960;49.142;7.768;2023-07-20T01:58:02;12.20;;;5.00;;
5867;SDS011;2960;49.142;7.768;2023-07-20T02:00:31;11.70;;;4.60;;
5867;SDS011;2960;49.142;7.768;2023-07-20T02:02:58;11.40;;;4.70;;
5867;SDS011;2960;49.142;7.768;2023-07-20T02:05:25;11.90;;;5.10;;
5867;SDS011;2960;49.142;7.768;2023-07-20T02:07:53;12.40;;;4.97;;
5867;SDS011;2960;49.142;7.768;2023-07-20T02:10:21;11.50;;;4.83;;
5867;SDS011;2960;49.142;7.768;2023-07-20T02:12:48;11.83;;;4.87;;
5867;SDS011;2960;49.142;7.768;2023-07-20T02:15:15;11.80;;;4.50;;
5867;SDS011;2960;49.142;7.768;2023-07-20T02:17:44;11.40;;;4.63;;
5867;SDS011;2960;49.142;7.768;2023-07-20T02:20:11;13.70;;;5.10;;
5867;SDS011;2960;49.142;7.768;2023-07-20T02:22:40;11.57;;;4.80;;
5867;SDS011;2960;49.142;7.768;2023-07-20T02:25:09;12.37;;;5.00;;
5867;SDS011;2960;49.142;7.768;2023-07-20T02:27:36;11.43;;;4.80;;
5867;SDS011;2960;49.142;7.768;2023-07-20T02:30:05;11.40;;;4.77;;
5867;SDS011;2960;49.142;7.768;2023-07-20T02:32:34;13.10;;;4.90;;
5867;SDS011;2960;49.142;7.768;2023-07-20T02:35:01;11.40;;;4.80;;
5867;SDS011;2960;49.142;7.768;2023-07-20T02:37:29;11.70;;;4.73;;
5867;SDS011;2960;49.142;7.768;2023-07-20T02:39:57;11.30;;;4.60;;
5867;SDS011;2960;49.142;7.768;2023-07-20T02:42:26;12.10;;;5.00;;
5867;SDS011;2960;49.142;7.768;2023-07-20T02:44:54;11.90;;;4.70;;
5867;SDS011;2960;49.142;7.768;2023-07-20T02:47:21;11.60;;;4.70;;
5867;SDS011;2960;49.142;7.768;2023-07-20T02:49:51;11.80;;;4.50;;
5867;SDS011;2960;49.142;7.768;2023-07-20T02:52:18;11.47;;;4.30;;
5867;SDS011;2960;49.142;7.768;2023-07-20T02:54:45;11.77;;;4.50;;
5867;SDS011;2960;49.142;7.768;2023-07-20T02:57:12;12.17;;;4.70;;
5867;SDS011;2960;49.142;7.768;2023-07-20T02:59:42;11.70;;;4.40;;
5867;SDS011;2960;49.142;7.768;2023-07-20T03:02:09;11.60;;;4.43;;
5867;SDS011;2960;49.142;7.768;2023-07-20T03:04:36;11.80;;;4.27;;
5867;SDS011;2960;49.142;7.768;2023-07-20T03:07:04;11.53;;;4.37;;
5867;SDS011;2960;49.142;7.768;2023-07-20T03:09:32;11.17;;;4.33;;
5867;SDS011;2960;49.142;7.768;2023-07-20T03:11:59;11.90;;;4.57;;
5867;SDS011;2960;49.142;7.768;2023-07-20T03:14:27;10.97;;;4.07;;
5867;SDS011;2960;49.142;7.768;2023-07-20T03:16:55;11.13;;;4.60;;
5867;SDS011;2960;49.142;7.768;2023-07-20T03:19:22;11.40;;;4.40;;
5867;SDS011;2960;49.142;7.768;2023-07-20T03:21:49;11.60;;;4.40;;
5867;SDS011;2960;49.142;7.768;2023-07-20T03:24:17;10.90;;;4.03;;
5867;SDS011;2960;49.142;7.768;2023-07-20T03:26:44;12.37;;;4.33;;
5867;SDS011;2960;49.142;7.768;2023-07-20T03:29:11;11.57;;;4.40;;
5867;SDS011;2960;49.142;7.768;2023-07-20T03:31:38;11.80;;;4.53;;
5867;SDS011;2960;49.142;7.768;2023-07-20T03:34:07;11.70;;;4.33;;
5867;SDS011;2960;49.142;7.768;2023-07-20T03:36:34;14.27;;;4.80;;
5867;SDS011;2960;49.142;7.768;2023-07-20T03:39:01;10.80;;;4.13;;
5867;SDS011;2960;49.142;7.768;2023-07-20T03:41:29;10.80;;;4.07;;
5867;SDS011;2960;49.142;7.768;2023-07-20T03:43:56;10.90;;;4.20;;
5867;SDS011;2960;49.142;7.768;2023-07-20T03:46:23;11.20;;;4.10;;
5867;SDS011;2960;49.142;7.768;2023-07-20T03:48:50;11.40;;;4.33;;
5867;SDS011;2960;49.142;7.768;2023-07-20T03:51:18;11.37;;;4.50;;
5867;SDS011;2960;49.142;7.768;2023-07-20T03:53:46;11.60;;;4.70;;
5867;SDS011;2960;49.142;7.768;2023-07-20T03:56:13;11.23;;;4.47;;
5867;SDS011;2960;49.142;7.768;2023-07-20T03:58:40;11.87;;;4.57;;
5867;SDS011;2960;49.142;7.768;2023-07-20T04:01:07;11.00;;;4.13;;
5867;SDS011;2960;49.142;7.768;2023-07-20T04:03:34;11.87;;;4.37;;
5867;SDS011;2960;49.142;7.768;2023-07-20T04:06:01;11.40;;;4.03;;
5867;SDS011;2960;49.142;7.768;2023-07-20T04:08:30;13.50;;;4.20;;
5867;SDS011;2960;49.142;7.768;2023-07-20T04:11:00;11.07;;;4.00;;
5867;SDS011;2960;49.142;7.768;2023-07-20T04:13:28;11.43;;;4.13;;
5867;SDS011;2960;49.142;7.768;2023-07-20T04:15:58;11.40;;;4.20;;
5867;SDS011;2960;49.142;7.768;2023-07-20T04:18:25;12.13;;;4.03;;
5867;SDS011;2960;49.142;7.768;2023-07-20T04:20:52;11.20;;;4.13;;
5867;SDS011;2960;49.142;7.768;2023-07-20T04:23:19;11.10;;;3.90;;
5867;SDS011;2960;49.142;7.768;2023-07-20T04:25:48;10.90;;;4.23;;
5867;SDS011;2960;49.142;7.768;2023-07-20T04:28:15;11.00;;;3.80;;
5867;SDS011;2960;49.142;7.768;2023-07-20T04:30:42;11.00;;;3.97;;
5867;SDS011;2960;49.142;7.768;2023-07-20T04:33:09;11.77;;;3.90;;
5867;SDS011;2960;49.142;7.768;2023-07-20T04:35:46;11.00;;;4.17;;
5867;SDS011;2960;49.142;7.768;2023-07-20T04:38:18;10.97;;;3.80;;
5867;SDS011;2960;49.142;7.768;2023-07-20T04:40:45;12.63;;;3.90;;
5867;SDS011;2960;49.142;7.768;2023-07-20T04:43:16;12.27;;;4.20;;
5867;SDS011;2960;49.142;7.768;2023-07-20T04:45:44;11.30;;;3.97;;
5867;SDS011;2960;49.142;7.768;2023-07-20T04:48:12;10.90;;;3.90;;
5867;SDS011;2960;49.142;7.768;2023-07-20T04:50:41;10.70;;;3.70;;
5867;SDS011;2960;49.142;7.768;2023-07-20T04:53:10;11.40;;;4.20;;
5867;SDS011;2960;49.142;7.768;2023-07-20T04:55:38;11.43;;;4.07;;
5867;SDS011;2960;49.142;7.768;2023-07-20T04:58:07;11.03;;;4.30;;
5867;SDS011;2960;49.142;7.768;2023-07-20T05:00:34;11.03;;;4.23;;
5867;SDS011;2960;49.142;7.768;2023-07-20T05:03:04;11.10;;;4.40;;
5867;SDS011;2960;49.142;7.768;2023-07-20T05:05:31;11.00;;;4.10;;
5867;SDS011;2960;49.142;7.768;2023-07-20T05:07:58;12.47;;;4.20;;
5867;SDS011;2960;49.142;7.768;2023-07-20T05:10:25;11.10;;;4.17;;
5867;SDS011;2960;49.142;7.768;2023-07-20T05:12:52;10.73;;;3.77;;
5867;SDS011;2960;49.142;7.768;2023-07-20T05:15:21;11.17;;;4.03;;
5867;SDS011;2960;49.142;7.768;2023-07-20T05:17:50;10.90;;;4.00;;
5867;SDS011;2960;49.142;7.768;2023-07-20T05:20:18;11.13;;;4.10;;
5867;SDS011;2960;49.142;7.768;2023-07-20T05:22:46;11.20;;;4.00;;
5867;SDS011;2960;49.142;7.768;2023-07-20T05:25:13;11.77;;;4.23;;
5867;SDS011;2960;49.142;7.768;2023-07-20T05:27:43;10.90;;;3.83;;
5867;SDS011;2960;49.142;7.768;2023-07-20T05:30:11;11.07;;;4.00;;
5867;SDS011;2960;49.142;7.768;2023-07-20T05:32:40;11.10;;;4.30;;
5867;SDS011;2960;49.142;7.768;2023-07-20T05:35:08;11.20;;;4.20;;
5867;SDS011;2960;49.142;7.768;2023-07-20T05:37:36;12.60;;;4.50;;
5867;SDS011;2960;49.142;7.768;2023-07-20T05:40:04;10.67;;;3.93;;
5867;SDS011;2960;49.142;7.768;2023-07-20T05:42:35;11.10;;;4.20;;
5867;SDS011;2960;49.142;7.768;2023-07-20T05:45:02;11.50;;;4.20;;
5867;SDS011;2960;49.142;7.768;2023-07-20T05:47:30;11.23;;;4.20;;
5867;SDS011;2960;49.142;7.768;2023-07-20T05:50:02;11.00;;;4.20;;
5867;SDS011;2960;49.142;7.768;2023-07-20T05:52:30;11.60;;;4.10;;
5867;SDS011;2960;49.142;7.768;2023-07-20T05:54:57;10.77;;;3.90;;
5867;SDS011;2960;49.142;7.768;2023-07-20T05:57:24;11.17;;;4.07;;
5867;SDS011;2960;49.142;7.768;2023-07-20T05:59:51;11.00;;;4.10;;
5867;SDS011;2960;49.142;7.768;2023-07-20T06:02:18;11.07;;;3.83;;
5867;SDS011;2960;49.142;7.768;2023-07-20T06:04:45;11.10;;;4.03;;
5867;SDS011;2960;49.142;7.768;2023-07-20T06:07:14;11.60;;;4.00;;
5867;SDS011;2960;49.142;7.768;2023-07-20T06:09:41;11.60;;;3.70;;
5867;SDS011;2960;49.142;7.768;2023-07-20T06:12:08;11.30;;;3.90;;
5867;SDS011;2960;49.142;7.768;2023-07-20T06:14:35;11.60;;;4.10;;
5867;SDS011;2960;49.142;7.768;2023-07-20T06:17:03;11.00;;;3.70;;
5867;SDS011;2960;49.142;7.768;2023-07-20T06:19:31;11.27;;;3.80;;
5867;SDS011;2960;49.142;7.768;2023-07-20T06:21:58;10.93;;;3.70;;
5867;SDS011;2960;49.142;7.768;2023-07-20T06:24:26;10.87;;;3.87;;
5867;SDS011;2960;49.142;7.768;2023-07-20T06:26:53;10.90;;;4.03;;
5867;SDS011;2960;49.142;7.768;2023-07-20T06:29:20;11.10;;;3.80;;
5867;SDS011;2960;49.142;7.768;2023-07-20T06:31:47;11.00;;;3.90;;
5867;SDS011;2960;49.142;7.768;2023-07-20T06:34:15;11.30;;;4.03;;
5867;SDS011;2960;49.142;7.768;2023-07-20T06:36:42;10.90;;;4.03;;
5867;SDS011;2960;49.142;7.768;2023-07-20T06:39:09;10.73;;;3.97;;
5867;SDS011;2960;49.142;7.768;2023-07-20T06:41:37;11.00;;;4.00;;
5867;SDS011;2960;49.142;7.768;2023-07-20T06:44:04;10.80;;;3.70;;
5867;SDS011;2960;49.142;7.768;2023-07-20T06:46:33;11.17;;;4.00;;
5867;SDS011;2960;49.142;7.768;2023-07-20T06:49:00;11.30;;;4.07;;
5867;SDS011;2960;49.142;7.768;2023-07-20T06:51:27;12.03;;;3.97;;
5867;SDS011;2960;49.142;7.768;2023-07-20T06:53:54;11.50;;;3.93;;
5867;SDS011;2960;49.142;7.768;2023-07-20T06:56:22;12.30;;;4.33;;
5867;SDS011;2960;49.142;7.768;2023-07-20T06:58:50;10.90;;;3.90;;
5867;SDS011;2960;49.142;7.768;2023-07-20T07:01:17;11.90;;;4.00;;
5867;SDS011;2960;49.142;7.768;2023-07-20T07:03:46;11.30;;;4.20;;
5867;SDS011;2960;49.142;7.768;2023-07-20T07:06:13;11.37;;;4.43;;
5867;SDS011;2960;49.142;7.768;2023-07-20T07:08:40;11.40;;;4.60;;
5867;SDS011;2960;49.142;7.768;2023-07-20T07:11:09;11.47;;;3.90;;
5867;SDS011;2960;49.142;7.768;2023-07-20T07:13:36;11.77;;;4.43;;
5867;SDS011;2960;49.142;7.768;2023-07-20T07:16:05;11.00;;;3.90;;
5867;SDS011;2960;49.142;7.768;2023-07-20T07:18:32;11.90;;;3.93;;
5867;SDS011;2960;49.142;7.768;2023-07-20T07:20:59;12.70;;;3.90;;
5867;SDS011;2960;49.142;7.768;2023-07-20T07:23:26;11.90;;;4.10;;
5867;SDS011;2960;49.142;7.768;2023-07-20T07:25:53;11.73;;;3.90;;
5867;SDS011;2960;49.142;7.768;2023-07-20T07:28:21;10.97;;;3.97;;
5867;SDS011;2960;49.142;7.768;2023-07-20T07:30:48;10.90;;;3.63;;
5867;SDS011;2960;49.142;7.768;2023-07-20T07:33:16;12.20;;;4.57;;
5867;SDS011;2960;49.142;7.768;2023-07-20T07:35:44;11.83;;;4.13;;
5867;SDS011;2960;49.142;7.768;2023-07-20T07:38:11;11.47;;;3.80;;
5867;SDS011;2960;49.142;7.768;2023-07-20T07:40:38;11.77;;;3.80;;
5867;SDS011;2960;49.142;7.768;2023-07-20T07:43:05;11.87;;;3.97;;
5867;SDS011;2960;49.142;7.768;2023-07-20T07:45:34;11.93;;;3.70;;
5867;SDS011;2960;49.142;7.768;2023-07-20T07:48:02;12.17;;;3.80;;
5867;SDS011;2960;49.142;7.768;2023-07-20T07:53:00;11.30;;;3.80;;
5867;SDS011;2960;49.142;7.768;2023-07-20T07:55:28;11.13;;;3.83;;
5867;SDS011;2960;49.142;7.768;2023-07-20T07:57:55;12.67;;;4.13;;
5867;SDS011;2960;49.142;7.768;2023-07-20T08:00:24;10.90;;;3.53;;
5867;SDS011;2960;49.142;7.768;2023-07-20T08:02:52;10.93;;;3.83;;
5867;SDS011;2960;49.142;7.768;2023-07-20T08:05:19;12.83;;;3.90;;
5867;SDS011;2960;49.142;7.768;2023-07-20T08:07:47;11.07;;;3.73;;
5867;SDS011;2960;49.142;7.768;2023-07-20T08:10:14;11.10;;;3.83;;
5867;SDS011;2960;49.142;7.768;2023-07-20T08:12:42;11.20;;;4.00;;
5867;SDS011;2960;49.142;7.768;2023-07-20T08:15:10;11.00;;;4.10;;
5867;SDS011;2960;49.142;7.768;2023-07-20T08:17:39;12.20;;;4.07;;
5867;SDS011;2960;49.142;7.768;2023-07-20T08:20:07;11.37;;;4.10;;
5867;SDS011;2960;49.142;7.768;2023-07-20T08:22:37;11.90;;;4.90;;
5867;SDS011;2960;49.142;7.768;2023-07-20T08:25:06;10.90;;;4.03;;
5867;SDS011;2960;49.142;7.768;2023-07-20T08:27:34;11.60;;;4.30;;
5867;SDS011;2960;49.142;7.768;2023-07-20T08:30:03;11.20;;;4.20;;
5867;SDS011;2960;49.142;7.768;2023-07-20T08:32:33;11.03;;;4.00;;
5867;SDS011;2960;49.142;7.768;2023-07-20T08:35:00;11.00;;;3.80;;
5867;SDS011;2960;49.142;7.768;2023-07-20T08:37:27;12.80;;;3.73;;
5867;SDS011;2960;49.142;7.768;2023-07-20T08:39:54;12.40;;;4.10;;
5867;SDS011;2960;49.142;7.768;2023-07-20T08:42:25;11.07;;;4.07;;
5867;SDS011;2960;49.142;7.768;2023-07-20T08:44:54;10.97;;;3.57;;
5867;SDS011;2960;49.142;7.768;2023-07-20T08:47:22;10.80;;;3.80;;
5867;SDS011;2960;49.142;7.768;2023-07-20T08:49:51;13.60;;;4.23;;
5867;SDS011;2960;49.142;7.768;2023-07-20T08:52:19;11.53;;;3.93;;
5867;SDS011;2960;49.142;7.768;2023-07-20T08:54:46;11.40;;;4.20;;
5867;SDS011;2960;49.142;7.768;2023-07-20T08:57:14;11.70;;;4.10;;
5867;SDS011;2960;49.142;7.768;2023-07-20T08:59:44;11.10;;;4.10;;
5867;SDS011;2960;49.142;7.768;2023-07-20T09:02:12;10.77;;;4.13;;
5867;SDS011;2960;49.142;7.768;2023-07-20T09:04:46;11.20;;;4.40;;
5867;SDS011;2960;49.142;7.768;2023-07-20T09:07:14;12.10;;;4.00;;
5867;SDS011;2960;49.142;7.768;2023-07-20T09:09:45;10.73;;;4.00;;
5867;SDS011;2960;49.142;7.768;2023-07-20T09:12:13;11.13;;;3.67;;
5867;SDS011;2960;49.142;7.768;2023-07-20T09:14:42;11.33;;;4.33;;
5867;SDS011;2960;49.142;7.768;2023-07-20T09:17:14;11.50;;;4.10;;
5867;SDS011;2960;49.142;7.768;2023-07-20T09:19:45;11.00;;;4.00;;
5867;SDS011;2960;49.142;7.768;2023-07-20T09:22:13;10.97;;;4.40;;
5867;SDS011;2960;49.142;7.768;2023-07-20T09:24:42;11.60;;;4.67;;
5867;SDS011;2960;49.142;7.768;2023-07-20T09:27:12;11.70;;;4.60;;
5867;SDS011;2960;49.142;7.768;2023-07-20T09:29:53;11.13;;;4.20;;
5867;SDS011;2960;49.142;7.768;2023-07-20T09:32:21;11.00;;;4.40;;
5867;SDS011;2960;49.142;7.768;2023-07-20T09:34:49;11.40;;;4.67;;
5867;SDS011;2960;49.142;7.768;2023-07-20T09:37:19;12.07;;;4.70;;
5867;SDS011;2960;49.142;7.768;2023-07-20T09:39:47;11.03;;;4.10;;
5867;SDS011;2960;49.142;7.768;2023-07-20T09:42:17;15.93;;;4.33;;
5867;SDS011;2960;49.142;7.768;2023-07-20T09:44:45;11.87;;;3.90;;
5867;SDS011;2960;49.142;7.768;2023-07-20T09:47:14;10.97;;;4.20;;
5867;SDS011;2960;49.142;7.768;2023-07-20T09:49:48;10.70;;;4.03;;
5867;SDS011;2960;49.142;7.768;2023-07-20T09:52:15;10.90;;;4.23;;
5867;SDS011;2960;49.142;7.768;2023-07-20T09:54:44;10.83;;;4.30;;
5867;SDS011;2960;49.142;7.768;2023-07-20T09:57:12;11.30;;;4.50;;
5867;SDS011;2960;49.142;7.768;2023-07-20T09:59:41;10.77;;;4.37;;
5867;SDS011;2960;49.142;7.768;2023-07-20T10:02:10;11.07;;;4.27;;
5867;SDS011;2960;49.142;7.768;2023-07-20T10:04:46;11.23;;;4.67;;
5867;SDS011;2960;49.142;7.768;2023-07-20T10:07:15;10.90;;;4.30;;
5867;SDS011;2960;49.142;7.768;2023-07-20T10:09:48;11.70;;;4.70;;
5867;SDS011;2960;49.142;7.768;2023-07-20T10:12:18;10.83;;;4.27;;
5867;SDS011;2960;49.142;7.768;2023-07-20T10:14:51;11.40;;;4.70;;
5867;SDS011;2960;49.142;7.768;2023-07-20T10:17:27;10.87;;;4.20;;
5867;SDS011;2960;49.142;7.768;2023-07-20T10:19:54;11.70;;;4.17;;
5867;SDS011;2960;49.142;7.768;2023-07-20T10:22:25;11.80;;;4.23;;
5867;SDS011;2960;49.142;7.768;2023-07-20T10:24:53;10.67;;;4.20;;
5867;SDS011;2960;49.142;7.768;2023-07-20T10:27:23;10.63;;;4.23;;
5867;SDS011;2960;49.142;7.768;2023-07-20T10:29:52;11.10;;;4.23;;
5867;SDS011;2960;49.142;7.768;2023-07-20T10:32:22;10.90;;;4.50;;
5867;SDS011;2960;49.142;7.768;2023-07-20T10:34:51;11.10;;;4.10;;
5867;SDS011;2960;49.142;7.768;2023-07-20T10:37:45;11.07;;;4.40;;
5867;SDS011;2960;49.142;7.768;2023-07-20T10:40:23;10.77;;;4.30;;
5867;SDS011;2960;49.142;7.768;2023-07-20T10:42:56;10.67;;;4.27;;
5867;SDS011;2960;49.142;7.768;2023-07-20T10:45:34;10.70;;;4.13;;
5867;SDS011;2960;49.142;7.768;2023-07-20T10:48:14;10.63;;;4.10;;
5867;SDS011;2960;49.142;7.768;2023-07-20T10:50:46;10.33;;;3.87;;
5867;SDS011;2960;49.142;7.768;2023-07-20T10:53:41;10.90;;;3.97;;
5867;SDS011;2960;49.142;7.768;2023-07-20T10:56:11;10.70;;;3.90;;
5867;SDS011;2960;49.142;7.768;2023-07-20T10:58:40;10.50;;;4.00;;
5867;SDS011;2960;49.142;7.768;2023-07-20T11:01:08;10.57;;;3.80;;
5867;SDS011;2960;49.142;7.768;2023-07-20T11:03:39;10.70;;;3.80;;
5867;SDS011;2960;49.142;7.768;2023-07-20T11:06:30;11.20;;;3.80;;
5867;SDS011;2960;49.142;7.768;2023-07-20T11:09:04;10.60;;;4.10;;
5867;SDS011;2960;49.142;7.768;2023-07-20T11:11:36;12.33;;;4.40;;
5867;SDS011;2960;49.142;7.768;2023-07-20T11:14:06;10.80;;;4.13;;
5867;SDS011;2960;49.142;7.768;2023-07-20T11:16:35;13.20;;;4.23;;
5867;SDS011;2960;49.142;7.768;2023-07-20T11:19:05;10.43;;;3.90;;
5867;SDS011;2960;49.142;7.768;2023-07-20T11:21:45;11.30;;;4.20;;
5867;SDS011;2960;49.142;7.768;2023-07-20T11:24:17;10.83;;;4.10;;
5867;SDS011;2960;49.142;7.768;2023-07-20T11:26:45;10.70;;;3.80;;
5867;SDS011;2960;49.142;7.768;2023-07-20T11:29:13;10.67;;;3.77;;
5867;SDS011;2960;49.142;7.768;2023-07-20T11:31:42;10.57;;;3.73;;
5867;SDS011;2960;49.142;7.768;2023-07-20T11:34:11;10.70;;;3.97;;
5867;SDS011;2960;49.142;7.768;2023-07-20T11:36:41;10.70;;;3.93;;
5867;SDS011;2960;49.142;7.768;2023-07-20T11:39:12;11.00;;;3.90;;
5867;SDS011;2960;49.142;7.768;2023-07-20T11:41:43;10.40;;;3.63;;
5867;SDS011;2960;49.142;7.768;2023-07-20T11:44:13;10.27;;;3.60;;
5867;SDS011;2960;49.142;7.768;2023-07-20T11:46:44;10.63;;;3.83;;
5867;SDS011;2960;49.142;7.768;2023-07-20T11:49:12;10.40;;;3.70;;
5867;SDS011;2960;49.142;7.768;2023-07-20T11:51:40;10.27;;;3.50;;
5867;SDS011;2960;49.142;7.768;2023-07-20T11:54:07;10.03;;;3.37;;
5867;SDS011;2960;49.142;7.768;2023-07-20T11:56:37;10.53;;;3.70;;
5867;SDS011;2960;49.142;7.768;2023-07-20T11:59:09;11.30;;;3.80;;
5867;SDS011;2960;49.142;7.768;2023-07-20T12:01:36;11.90;;;4.10;;
5867;SDS011;2960;49.142;7.768;2023-07-20T12:04:03;10.77;;;3.87;;
5867;SDS011;2960;49.142;7.768;2023-07-20T12:06:32;10.43;;;3.90;;
5867;SDS011;2960;49.142;7.768;2023-07-20T12:08:59;10.47;;;3.80;;
5867;SDS011;2960;49.142;7.768;2023-07-20T12:11:30;10.67;;;3.57;;
5867;SDS011;2960;49.142;7.768;2023-07-20T12:14:02;10.17;;;3.50;;
5867;SDS011;2960;49.142;7.768;2023-07-20T12:16:30;10.67;;;3.77;;
5867;SDS011;2960;49.142;7.768;2023-07-20T12:19:00;10.83;;;3.63;;
5867;SDS011;2960;49.142;7.768;2023-07-20T12:21:29;10.73;;;4.00;;
5867;SDS011;2960;49.142;7.768;2023-07-20T12:23:58;10.60;;;3.70;;
5867;SDS011;2960;49.142;7.768;2023-07-20T12:26:26;10.37;;;3.60;;
5867;SDS011;2960;49.142;7.768;2023-07-20T12:28:55;11.07;;;4.03;;
5867;SDS011;2960;49.142;7.768;2023-07-20T12:31:24;10.77;;;4.00;;
5867;SDS011;2960;49.142;7.768;2023-07-20T12:33:56;10.90;;;3.40;;
5867;SDS011;2960;49.142;7.768;2023-07-20T12:36:24;10.83;;;3.90;;
5867;SDS011;2960;49.142;7.768;2023-07-20T12:38:51;12.07;;;3.90;;
5867;SDS011;2960;49.142;7.768;2023-07-20T12:41:21;12.00;;;3.77;;
5867;SDS011;2960;49.142;7.768;2023-07-20T12:43:48;10.57;;;3.80;;
5867;SDS011;2960;49.142;7.768;2023-07-20T12:46:15;11.10;;;4.13;;
5867;SDS011;2960;49.142;7.768;2023-07-20T12:48:44;10.67;;;4.13;;
5867;SDS011;2960;49.142;7.768;2023-07-20T12:51:11;10.80;;;3.80;;
5867;SDS011;2960;49.142;7.768;2023-07-20T12:53:38;10.67;;;3.70;;
5867;SDS011;2960;49.142;7.768;2023-07-20T12:56:05;10.57;;;3.37;;
5867;SDS011;2960;49.142;7.768;2023-07-20T12:58:33;11.00;;;4.00;;
5867;SDS011;2960;49.142;7.768;2023-07-20T13:01:02;10.90;;;3.97;;
5867;SDS011;2960;49.142;7.768;2023-07-20T13:03:29;11.10;;;4.00;;
5867;SDS011;2960;49.142;7.768;2023-07-20T13:05:58;10.97;;;3.90;;
5867;SDS011;2960;49.142;7.768;2023-07-20T13:08:28;10.50;;;3.73;;
5867;SDS011;2960;49.142;7.768;2023-07-20T13:10:55;11.40;;;4.30;;
5867;SDS011;2960;49.142;7.768;2023-07-20T13:13:22;10.67;;;3.77;;
5867;SDS011;2960;49.142;7.768;2023-07-20T13:15:52;11.07;;;3.83;;
5867;SDS011;2960;49.142;7.768;2023-07-20T13:18:19;10.87;;;3.90;;
5867;SDS011;2960;49.142;7.768;2023-07-20T13:20:46;10.47;;;3.63;;
5867;SDS011;2960;49.142;7.768;2023-07-20T13:23:14;10.63;;;4.00;;
5867;SDS011;2960;49.142;7.768;2023-07-20T13:25:41;10.40;;;3.63;;
5867;SDS011;2960;49.142;7.768;2023-07-20T13:28:09;10.47;;;3.63;;
5867;SDS011;2960;49.142;7.768;2023-07-20T13:30:36;10.60;;;3.80;;
5867;SDS011;2960;49.142;7.768;2023-07-20T13:33:03;10.90;;;3.80;;
5867;SDS011;2960;49.142;7.768;2023-07-20T13:35:30;10.80;;;4.10;;
5867;SDS011;2960;49.142;7.768;2023-07-20T13:37:57;10.63;;;4.00;;
5867;SDS011;2960;49.142;7.768;2023-07-20T13:40:25;10.70;;;4.10;;
5867;SDS011;2960;49.142;7.768;2023-07-20T13:42:52;10.50;;;3.73;;
5867;SDS011;2960;49.142;7.768;2023-07-20T13:45:19;10.50;;;3.90;;
5867;SDS011;2960;49.142;7.768;2023-07-20T13:47:46;10.60;;;3.90;;
5867;SDS011;2960;49.142;7.768;2023-07-20T13:50:13;11.77;;;4.20;;
5867;SDS011;2960;49.142;7.768;2023-07-20T13:52:41;11.10;;;4.17;;
5867;SDS011;2960;49.142;7.768;2023-07-20T13:55:08;10.87;;;4.10;;
5867;SDS011;2960;49.142;7.768;2023-07-20T13:57:36;10.50;;;4.00;;
5867;SDS011;2960;49.142;7.768;2023-07-20T14:00:04;11.00;;;4.20;;
5867;SDS011;2960;49.142;7.768;2023-07-20T14:02:36;10.90;;;3.80;;
5867;SDS011;2960;49.142;7.768;2023-07-20T14:05:03;11.37;;;4.30;;
5867;SDS011;2960;49.142;7.768;2023-07-20T14:07:31;10.60;;;3.90;;
5867;SDS011;2960;49.142;7.768;2023-07-20T14:09:58;10.77;;;3.70;;
5867;SDS011;2960;49.142;7.768;2023-07-20T14:12:25;10.30;;;3.80;;
5867;SDS011;2960;49.142;7.768;2023-07-20T14:14:54;10.70;;;3.97;;
5867;SDS011;2960;49.142;7.768;2023-07-20T14:17:21;11.00;;;4.10;;
5867;SDS011;2960;49.142;7.768;2023-07-20T14:19:48;10.50;;;3.77;;
5867;SDS011;2960;49.142;7.768;2023-07-20T14:22:17;10.90;;;3.93;;
5867;SDS011;2960;49.142;7.768;2023-07-20T14:24:44;11.97;;;3.70;;
5867;SDS011;2960;49.142;7.768;2023-07-20T14:27:11;10.47;;;3.90;;
5867;SDS011;2960;49.142;7.768;2023-07-20T14:29:38;10.33;;;3.70;;
5867;SDS011;2960;49.142;7.768;2023-07-20T14:32:07;10.37;;;3.90;;
5867;SDS011;2960;49.142;7.768;2023-07-20T14:34:34;10.43;;;3.87;;
5867;SDS011;2960;49.142;7.768;2023-07-20T14:37:01;10.50;;;3.90;;
5867;SDS011;2960;49.142;7.768;2023-07-20T14:39:30;10.77;;;3.90;;
5867;SDS011;2960;49.142;7.768;2023-07-20T14:41:57;10.63;;;3.80;;
5867;SDS011;2960;49.142;7.768;2023-07-20T14:44:24;10.37;;;3.87;;
5867;SDS011;2960;49.142;7.768;2023-07-20T14:46:52;10.60;;;4.10;;
5867;SDS011;2960;49.142;7.768;2023-07-20T14:49:20;10.40;;;3.90;;
5867;SDS011;2960;49.142;7.768;2023-07-20T14:51:47;9.87;;;3.13;;
5867;SDS011;2960;49.142;7.768;2023-07-20T14:54:14;10.30;;;3.70;;
5867;SDS011;2960;49.142;7.768;2023-07-20T14:56:48;10.50;;;3.70;;
5867;SDS011;2960;49.142;7.768;2023-07-20T14:59:17;10.90;;;4.10;;
5867;SDS011;2960;49.142;7.768;2023-07-20T15:01:44;10.60;;;3.93;;
5867;SDS011;2960;49.142;7.768;2023-07-20T15:04:11;10.50;;;4.23;;
5867;SDS011;2960;49.142;7.768;2023-07-20T15:06:40;10.93;;;4.60;;
5867;SDS011;2960;49.142;7.768;2023-07-20T15:09:08;10.70;;;4.33;;
5867;SDS011;2960;49.142;7.768;2023-07-20T15:11:35;10.53;;;4.30;;
5867;SDS011;2960;49.142;7.768;2023-07-20T15:14:02;10.70;;;4.23;;
5867;SDS011;2960;49.142;7.768;2023-07-20T15:16:29;10.60;;;4.17;;